Time,TemperatureF,DewpointF,PressureIn,WindDirection,WindDirectionDegrees,WindSpeedMPH,WindSpeedGustMPH,Humidity,HourlyPrecipIn,Conditions,Clouds,dailyrainin,SoftwareType,DateUTC
2013-07-04 00:00:00,71.8,69.3,30.16,SE,134,0.6,2.0,92,0.00,CLR,,0.00,WeatherDisplay:10.37,2013-07-04 04:00:00,
2013-07-04 00:01:00,71.8,69.3,30.16,SE,134,1.0,2.3,92,0.00,CLR,,0.00,WeatherDisplay:10.37,2013-07-04 04:01:00,
2013-07-04 00:06:00,71.8,69.3,30.16,SE,131,0.0,0.0,92,0.00,CLR,,0.00,WeatherDisplay:10.37,2013-07-04 04:06:00,
2013-07-04 00:11:00,71.8,69.3,30.16,SE,131,0.6,1.2,92,0.00,CLR,,0.00,WeatherDisplay:10.37,2013-07-04 04:11:00,
2013-07-04 00:16:00,71.7,69.3,30.16,SE,131,0.0,0.0,92,0.00,CLR,,0.00,WeatherDisplay:10.37,2013-07-04 04:16:00,
2013-07-04 00:21:00,71.7,69.3,30.16,SE,135,0.0,2.0,92,0.00,CLR,,0.00,WeatherDisplay:10.37,2013-07-04 04:21:00,
2013-07-04 00:26:00,71.5,69.1,30.16,SE,135,0.0,0.0,92,0.00,CLR,,0.00,WeatherDisplay:10.37,2013-07-04 04:26:00,
2013-07-04 00:31:00,71.5,69.4,30.17,SE,137,0.0,0.0,93,0.00,CLR,,0.00,WeatherDisplay:10.37,2013-07-04 04:31:00,
2013-07-04 00:36:00,71.7,69.6,30.16,SE,142,0.1,1.2,93,0.00,CLR,,0.00,WeatherDisplay:10.37,2013-07-04 04:36:00,
2013-07-04 00:41:00,72.0,69.9,30.16,SE,137,1.6,3.5,93,0.00,CLR,,0.00,WeatherDisplay:10.37,2013-07-04 04:41:00,
2013-07-04 00:46:00,72.2,70.1,30.16,SE,127,0.0,2.3,93,0.00,CLR,,0.00,WeatherDisplay:10.37,2013-07-04 04:46:00,
2013-07-04 00:51:00,72.4,70.3,30.16,SSE,152,0.4,3.5,93,0.00,CLR,,0.00,WeatherDisplay:10.37,2013-07-04 04:51:00,
2013-07-04 00:56:00,72.4,70.3,30.16,South,187,2.6,4.6,93,0.00,CLR,,0.00,WeatherDisplay:10.37,2013-07-04 04:56:00,
2013-07-04 01:01:00,72.4,70.3,30.16,SE,146,0.9,2.3,93,0.00,CLR,,0.00,WeatherDisplay:10.37,2013-07-04 05:01:00,
2013-07-04 01:06:00,72.4,70.3,30.16,SSE,168,0.6,3.5,93,0.00,CLR,,0.00,WeatherDisplay:10.37,2013-07-04 05:06:00,
2013-07-04 01:11:00,72.4,70.3,30.16,South,169,1.7,3.0,93,0.00,CLR,,0.00,WeatherDisplay:10.37,2013-07-04 05:11:00,
2013-07-04 01:16:00,72.5,70.4,30.16,SSE,166,3.3,4.6,93,0.00,CLR,,0.00,WeatherDisplay:10.37,2013-07-04 05:16:00,
2013-07-04 01:21:00,72.5,70.4,30.16,SSE,151,1.3,2.3,93,0.00,CLR,,0.00,WeatherDisplay:10.37,2013-07-04 05:21:00,
2013-07-04 01:26:00,72.5,70.4,30.16,SSE,151,0.5,1.0,93,0.00,CLR,,0.00,WeatherDisplay:10.37,2013-07-04 05:26:00,
2013-07-04 01:31:00,72.4,70.3,30.16,SSE,151,0.0,0.0,93,0.00,CLR,,0.00,WeatherDisplay:10.37,2013-07-04 05:31:00,
2013-07-04 01:36:00,72.4,70.3,30.16,SSE,151,0.1,1.0,93,0.00,CLR,,0.00,WeatherDisplay:10.37,2013-07-04 05:36:00,
2013-07-04 01:41:00,72.2,70.1,30.16,SSE,152,0.1,1.2,93,0.00,CLR,,0.00,WeatherDisplay:10.37,2013-07-04 05:41:00,
2013-07-04 01:46:00,72.2,70.1,30.16,SSE,151,0.0,0.0,93,0.00,CLR,,0.00,WeatherDisplay:10.37,2013-07-04 05:46:00,
2013-07-04 01:51:00,72.0,69.9,30.16,SSE,152,0.0,0.0,93,0.00,CLR,,0.00,WeatherDisplay:10.37,2013-07-04 05:51:00,
2013-07-04 01:56:00,71.8,69.7,30.16,SSE,151,0.0,0.0,93,0.00,CLR,,0.00,WeatherDisplay:10.37,2013-07-04 05:56:00,
2013-07-04 02:01:00,71.7,69.6,30.16,SSE,152,0.6,1.0,93,0.00,CLR,,0.00,WeatherDisplay:10.37,2013-07-04 06:01:00,
2013-07-04 02:06:00,71.5,69.4,30.16,SSE,152,0.2,2.3,93,0.00,CLR,,0.00,WeatherDisplay:10.37,2013-07-04 06:06:00,
2013-07-04 02:11:00,71.5,69.4,30.16,SSE,149,0.0,0.0,93,0.00,CLR,,0.00,WeatherDisplay:10.37,2013-07-04 06:11:00,
2013-07-04 02:16:00,71.3,69.2,30.16,SSE,152,0.0,0.0,93,0.00,CLR,,0.00,WeatherDisplay:10.37,2013-07-04 06:16:00,
2013-07-04 02:21:00,71.3,69.2,30.16,SSE,149,0.0,0.0,93,0.00,CLR,,0.00,WeatherDisplay:10.37,2013-07-04 06:21:00,
2013-07-04 02:26:00,71.2,69.1,30.16,SSE,151,0.0,1.2,93,0.00,CLR,,0.00,WeatherDisplay:10.37,2013-07-04 06:26:00,
2013-07-04 02:31:00,71.0,68.9,30.16,SSE,151,0.0,0.0,93,0.00,CLR,,0.00,WeatherDisplay:10.37,2013-07-04 06:31:00,
2013-07-04 02:36:00,71.0,68.9,30.16,SSE,151,0.0,0.0,93,0.00,CLR,,0.00,WeatherDisplay:10.37,2013-07-04 06:36:00,
2013-07-04 02:41:00,70.8,69.0,30.16,SSE,151,0.0,0.0,94,0.00,CLR,,0.00,WeatherDisplay:10.37,2013-07-04 06:41:00,
2013-07-04 02:46:00,70.8,69.0,30.16,SSE,152,0.0,0.0,94,0.00,CLR,,0.00,WeatherDisplay:10.37,2013-07-04 06:46:00,
2013-07-04 02:51:00,70.6,68.8,30.16,SSE,151,0.5,1.2,94,0.00,CLR,,0.00,WeatherDisplay:10.37,2013-07-04 06:51:00,
2013-07-04 02:56:00,70.6,68.8,30.16,SSE,151,0.0,0.0,94,0.00,CLR,,0.00,WeatherDisplay:10.37,2013-07-04 06:56:00,
2013-07-04 03:01:00,70.6,68.8,30.16,SSE,151,0.0,0.0,94,0.00,CLR,,0.00,WeatherDisplay:10.37,2013-07-04 07:01:00,
2013-07-04 03:06:00,70.5,68.7,30.16,SSE,149,0.0,0.0,94,0.00,CLR,,0.00,WeatherDisplay:10.37,2013-07-04 07:06:00,
2013-07-04 03:11:00,70.5,68.7,30.16,SSE,151,0.0,0.0,94,0.00,CLR,,0.00,WeatherDisplay:10.37,2013-07-04 07:11:00,
2013-07-04 03:16:00,70.5,68.7,30.16,SSE,152,0.0,0.0,94,0.00,CLR,,0.00,WeatherDisplay:10.37,2013-07-04 07:16:00,
2013-07-04 03:21:00,70.3,68.5,30.16,SSE,152,0.0,0.0,94,0.00,CLR,,0.00,WeatherDisplay:10.37,2013-07-04 07:21:00,
2013-07-04 03:26:00,70.1,68.3,30.16,SSE,151,0.0,0.0,94,0.00,CLR,,0.00,WeatherDisplay:10.37,2013-07-04 07:26:00,
2013-07-04 03:31:00,70.1,68.3,30.16,SSE,151,0.1,1.0,94,0.00,CLR,,0.00,WeatherDisplay:10.37,2013-07-04 07:31:00,
2013-07-04 03:36:00,70.0,68.2,30.16,SSE,151,0.1,1.0,94,0.00,CLR,,0.00,WeatherDisplay:10.37,2013-07-04 07:36:00,
2013-07-04 03:41:00,69.8,68.0,30.16,SSE,152,0.1,0.0,94,0.00,CLR,,0.00,WeatherDisplay:10.37,2013-07-04 07:41:00,
2013-07-04 03:46:00,69.8,68.0,30.16,SSE,152,1.3,2.3,94,0.00,CLR,,0.00,WeatherDisplay:10.37,2013-07-04 07:46:00,
2013-07-04 03:51:00,69.8,68.0,30.16,SSE,152,0.0,0.0,94,0.00,CLR,,0.00,WeatherDisplay:10.37,2013-07-04 07:51:00,
2013-07-04 03:56:00,69.6,67.8,30.16,SSE,151,0.0,0.0,94,0.00,CLR,,0.00,WeatherDisplay:10.37,2013-07-04 07:56:00,
2013-07-04 04:01:00,69.6,67.8,30.16,SSE,151,0.0,0.0,94,0.00,CLR,,0.00,WeatherDisplay:10.37,2013-07-04 08:01:00,
2013-07-04 04:06:00,69.6,68.1,30.16,SSE,149,0.0,0.0,95,0.00,CLR,,0.00,WeatherDisplay:10.37,2013-07-04 08:06:00,
2013-07-04 04:11:00,69.6,67.8,30.16,SSE,151,0.0,0.0,94,0.00,CLR,,0.00,WeatherDisplay:10.37,2013-07-04 08:11:00,
2013-07-04 04:16:00,69.6,68.1,30.16,SSE,151,0.0,0.0,95,0.00,CLR,,0.00,WeatherDisplay:10.37,2013-07-04 08:16:00,
2013-07-04 04:21:00,69.5,68.0,30.16,SSE,149,0.0,0.0,95,0.00,CLR,,0.00,WeatherDisplay:10.37,2013-07-04 08:21:00,
2013-07-04 04:26:00,69.5,68.0,30.16,SSE,151,0.0,0.0,95,0.00,CLR,,0.00,WeatherDisplay:10.37,2013-07-04 08:26:00,
2013-07-04 04:31:00,69.3,67.8,30.16,SSE,151,0.0,0.0,95,0.00,SCT,,0.00,WeatherDisplay:10.37,2013-07-04 08:31:00,
2013-07-04 04:36:00,69.3,67.8,30.16,SSE,152,0.0,0.0,95,0.00,SCT,,0.00,WeatherDisplay:10.37,2013-07-04 08:36:00,
2013-07-04 04:41:00,69.1,67.6,30.16,SSE,152,0.0,0.0,95,0.00,SCT,,0.00,WeatherDisplay:10.37,2013-07-04 08:41:00,
2013-07-04 04:46:00,69.1,67.6,30.17,SSE,151,0.0,0.0,95,0.00,SCT,,0.00,WeatherDisplay:10.37,2013-07-04 08:46:00,
2013-07-04 04:51:00,69.1,67.6,30.17,SSE,151,0.0,0.0,95,0.00,SCT,,0.00,WeatherDisplay:10.37,2013-07-04 08:51:00,
2013-07-04 04:56:00,69.0,67.5,30.17,SSE,152,0.0,0.0,95,0.00,SCT,,0.00,WeatherDisplay:10.37,2013-07-04 08:56:00,
2013-07-04 05:01:00,69.0,67.5,30.17,SSE,152,0.0,0.0,95,0.00,FEW,,0.00,WeatherDisplay:10.37,2013-07-04 09:01:00,
2013-07-04 05:06:00,68.8,67.3,30.17,SSE,151,0.0,0.0,95,0.00,FEW,,0.00,WeatherDisplay:10.37,2013-07-04 09:06:00,
2013-07-04 05:11:00,68.8,67.3,30.17,SSE,151,0.0,0.0,95,0.00,FEW,,0.00,WeatherDisplay:10.37,2013-07-04 09:11:00,
2013-07-04 05:16:00,68.6,67.1,30.17,SSE,151,0.0,0.0,95,0.00,FEW,,0.00,WeatherDisplay:10.37,2013-07-04 09:16:00,
2013-07-04 05:21:00,68.6,67.1,30.17,SSE,151,0.0,0.0,95,0.00,FEW,,0.00,WeatherDisplay:10.37,2013-07-04 09:21:00,
2013-07-04 05:26:00,68.5,67.0,30.18,SSE,151,0.0,0.0,95,0.00,FEW,,0.00,WeatherDisplay:10.37,2013-07-04 09:26:00,
2013-07-04 05:31:00,68.5,67.0,30.18,SSE,149,0.0,0.0,95,0.00,FEW,,0.00,WeatherDisplay:10.37,2013-07-04 09:31:00,
2013-07-04 05:36:00,68.5,67.0,30.18,SSE,152,0.0,0.0,95,0.00,FEW,,0.00,WeatherDisplay:10.37,2013-07-04 09:36:00,
2013-07-04 05:41:00,68.5,67.0,30.18,SSE,151,0.0,0.0,95,0.00,FEW,,0.00,WeatherDisplay:10.37,2013-07-04 09:41:00,
2013-07-04 05:46:00,68.5,67.0,30.18,SSE,152,0.0,0.0,95,0.00,FEW,,0.00,WeatherDisplay:10.37,2013-07-04 09:46:00,
2013-07-04 05:51:00,68.5,67.0,30.18,SSE,152,0.0,0.0,95,0.00,FEW,,0.00,WeatherDisplay:10.37,2013-07-04 09:51:00,
2013-07-04 05:56:00,68.5,67.0,30.18,SSE,149,0.0,0.0,95,0.00,FEW,,0.00,WeatherDisplay:10.37,2013-07-04 09:56:00,
2013-07-04 06:01:00,68.6,67.1,30.18,SSE,152,0.0,0.0,95,0.00,CLR,,0.00,WeatherDisplay:10.37,2013-07-04 10:01:00,
2013-07-04 06:06:00,68.6,67.1,30.18,SSE,151,0.0,0.0,95,0.00,CLR,,0.00,WeatherDisplay:10.37,2013-07-04 10:06:00,
2013-07-04 06:11:00,68.8,67.3,30.18,SSE,152,0.0,0.0,95,0.00,CLR,,0.00,WeatherDisplay:10.37,2013-07-04 10:11:00,
2013-07-04 06:16:00,69.0,67.5,30.18,SSE,153,0.0,0.0,95,0.00,CLR,,0.00,WeatherDisplay:10.37,2013-07-04 10:16:00,
2013-07-04 06:21:00,69.1,67.6,30.18,SSE,152,0.0,0.0,95,0.00,CLR,,0.00,WeatherDisplay:10.37,2013-07-04 10:21:00,
2013-07-04 06:26:00,69.5,68.0,30.18,SSE,151,0.0,0.0,95,0.00,CLR,,0.00,WeatherDisplay:10.37,2013-07-04 10:26:00,
2013-07-04 06:31:00,69.8,68.3,30.18,SSE,149,0.0,0.0,95,0.00,CLR,,0.00,WeatherDisplay:10.37,2013-07-04 10:31:00,
2013-07-04 06:36:00,70.3,69.1,30.18,SSE,151,0.0,0.0,96,0.00,CLR,,0.00,WeatherDisplay:10.37,2013-07-04 10:36:00,
2013-07-04 06:41:00,70.6,69.4,30.19,SSE,152,0.9,1.2,96,0.00,CLR,,0.00,WeatherDisplay:10.37,2013-07-04 10:41:00,
2013-07-04 06:46:00,71.2,70.0,30.19,SSE,151,0.1,1.0,96,0.00,CLR,,0.00,WeatherDisplay:10.37,2013-07-04 10:46:00,
2013-07-04 06:51:00,71.8,70.6,30.19,SSE,149,0.0,0.0,96,0.00,CLR,,0.00,WeatherDisplay:10.37,2013-07-04 10:51:00,
2013-07-04 06:56:00,72.4,71.2,30.19,SSE,151,1.1,1.2,96,0.00,CLR,,0.00,WeatherDisplay:10.37,2013-07-04 10:56:00,
2013-07-04 07:01:00,72.9,71.7,30.19,SSE,149,0.1,2.3,96,0.00,CLR,,0.00,WeatherDisplay:10.37,2013-07-04 11:01:00,
2013-07-04 07:06:00,73.4,71.9,30.19,SSE,151,1.5,2.3,95,0.00,CLR,,0.00,WeatherDisplay:10.37,2013-07-04 11:06:00,
2013-07-04 07:11:00,73.9,72.4,30.18,East,98,1.4,2.3,95,0.00,CLR,,0.00,WeatherDisplay:10.37,2013-07-04 11:11:00,
2013-07-04 07:16:00,74.3,72.5,30.19,SE,144,1.8,3.5,94,0.00,CLR,,0.00,WeatherDisplay:10.37,2013-07-04 11:16:00,
2013-07-04 07:21:00,75.0,72.8,30.19,SSE,165,0.9,2.0,93,0.00,CLR,,0.00,WeatherDisplay:10.37,2013-07-04 11:21:00,
2013-07-04 07:26:00,75.8,73.3,30.19,SSE,158,0.0,1.2,92,0.00,CLR,,0.00,WeatherDisplay:10.37,2013-07-04 11:26:00,
2013-07-04 07:31:00,76.4,72.9,30.19,SE,127,2.2,5.0,89,0.00,CLR,,0.00,WeatherDisplay:10.37,2013-07-04 11:31:00,
2013-07-04 07:36:00,77.1,71.9,30.19,SE,142,0.8,2.3,84,0.00,CLR,,0.00,WeatherDisplay:10.37,2013-07-04 11:36:00,
2013-07-04 07:41:00,78.2,72.3,30.19,South,180,0.2,2.3,82,0.00,CLR,,0.00,WeatherDisplay:10.37,2013-07-04 11:41:00,
2013-07-04 07:46:00,78.5,71.4,30.19,South,182,1.6,3.5,79,0.00,CLR,,0.00,WeatherDisplay:10.37,2013-07-04 11:46:00,
2013-07-04 07:51:00,79.1,72.0,30.19,SSE,153,2.6,2.6,79,0.00,CLR,,0.00,WeatherDisplay:10.37,2013-07-04 11:51:00,
2013-07-04 07:56:00,79.3,71.1,30.19,SE,139,3.2,4.6,76,0.00,CLR,,0.00,WeatherDisplay:10.37,2013-07-04 11:56:00,
2013-07-04 08:01:00,79.1,71.3,30.19,SE,132,0.4,3.5,77,0.00,CLR,,0.00,WeatherDisplay:10.37,2013-07-04 12:01:00,
2013-07-04 08:06:00,79.1,71.6,30.19,SE,134,0.0,0.0,78,0.00,CLR,,0.00,WeatherDisplay:10.37,2013-07-04 12:06:00,
2013-07-04 08:11:00,79.3,71.8,30.19,SSE,149,1.2,3.5,78,0.00,CLR,,0.00,WeatherDisplay:10.37,2013-07-04 12:11:00,
2013-07-04 08:16:00,79.3,71.5,30.19,SSE,151,0.6,2.3,77,0.00,CLR,,0.00,WeatherDisplay:10.37,2013-07-04 12:16:00,
2013-07-04 08:21:00,79.3,71.8,30.19,South,169,0.0,1.2,78,0.00,CLR,,0.00,WeatherDisplay:10.37,2013-07-04 12:21:00,
2013-07-04 08:26:00,79.5,71.7,30.19,SW,227,0.0,2.3,77,0.00,CLR,,0.00,WeatherDisplay:10.37,2013-07-04 12:26:00,
2013-07-04 08:31:00,79.5,71.3,30.19,WSW,241,0.5,2.3,76,0.00,CLR,,0.00,WeatherDisplay:10.37,2013-07-04 12:31:00,
2013-07-04 08:36:00,79.6,71.4,30.19,SSE,166,0.6,2.3,76,0.00,CLR,,0.00,WeatherDisplay:10.37,2013-07-04 12:36:00,
2013-07-04 08:41:00,79.6,71.4,30.19,South,172,0.6,3.5,76,0.00,CLR,,0.00,WeatherDisplay:10.37,2013-07-04 12:41:00,
2013-07-04 08:46:00,80.0,71.8,30.19,SSW,211,0.6,2.3,76,0.00,CLR,,0.00,WeatherDisplay:10.37,2013-07-04 12:46:00,
2013-07-04 08:51:00,80.0,71.0,30.19,WSW,258,2.5,5.0,74,0.00,CLR,,0.00,WeatherDisplay:10.37,2013-07-04 12:51:00,
2013-07-04 08:56:00,80.4,71.7,30.19,NNW,330,0.7,2.3,75,0.00,CLR,,0.00,WeatherDisplay:10.37,2013-07-04 12:56:00,
2013-07-04 09:01:00,80.6,71.5,30.19,South,169,2.8,4.6,74,0.00,CLR,,0.00,WeatherDisplay:10.37,2013-07-04 13:01:00,
2013-07-04 09:06:00,80.8,70.9,30.19,SW,214,1.8,4.6,72,0.00,CLR,,0.00,WeatherDisplay:10.37,2013-07-04 13:06:00,
2013-07-04 09:11:00,80.9,70.6,30.19,West,281,3.1,5.8,71,0.00,CLR,,0.00,WeatherDisplay:10.37,2013-07-04 13:11:00,
2013-07-04 09:16:00,81.3,71.4,30.18,SSW,213,1.4,3.5,72,0.00,CLR,,0.00,WeatherDisplay:10.37,2013-07-04 13:16:00,
2013-07-04 09:21:00,81.5,71.6,30.18,WSW,241,1.9,3.5,72,0.00,CLR,,0.00,WeatherDisplay:10.37,2013-07-04 13:21:00,
2013-07-04 09:26:00,81.9,71.6,30.18,SSW,210,1.6,5.0,71,0.00,CLR,,0.00,WeatherDisplay:10.37,2013-07-04 13:26:00,
2013-07-04 09:31:00,82.5,70.4,30.18,WSW,237,0.4,1.2,67,0.00,CLR,,0.00,WeatherDisplay:10.37,2013-07-04 13:31:00,
2013-07-04 09:36:00,83.1,70.6,30.18,West,275,0.9,2.3,66,0.00,CLR,,0.00,WeatherDisplay:10.37,2013-07-04 13:36:00,
2013-07-04 09:41:00,83.7,72.0,30.18,West,261,5.9,6.9,68,0.00,CLR,,0.00,WeatherDisplay:10.37,2013-07-04 13:41:00,
2013-07-04 09:46:00,84.4,71.3,30.18,South,170,1.5,2.3,65,0.00,CLR,,0.00,WeatherDisplay:10.37,2013-07-04 13:46:00,
2013-07-04 09:51:00,85.2,71.6,30.18,SSW,209,3.2,5.8,64,0.00,CLR,,0.00,WeatherDisplay:10.37,2013-07-04 13:51:00,
2013-07-04 09:56:00,86.0,71.9,30.18,WSW,251,1.7,3.5,63,0.00,CLR,,0.00,WeatherDisplay:10.37,2013-07-04 13:56:00,
2013-07-04 10:01:00,86.4,71.8,30.18,SSE,166,4.6,5.8,62,0.00,CLR,,0.00,WeatherDisplay:10.37,2013-07-04 14:01:00,
2013-07-04 10:06:00,86.7,72.1,30.18,South,183,4.6,8.1,62,0.00,CLR,,0.00,WeatherDisplay:10.37,2013-07-04 14:06:00,
2013-07-04 10:11:00,87.1,73.0,30.18,West,269,3.0,3.5,63,0.00,CLR,,0.00,WeatherDisplay:10.37,2013-07-04 14:11:00,
2013-07-04 10:16:00,87.7,74.0,30.17,South,179,1.0,3.5,64,0.00,CLR,,0.00,WeatherDisplay:10.37,2013-07-04 14:16:00,
2013-07-04 10:21:00,88.1,72.0,30.17,SSW,211,0.5,2.3,59,0.00,CLR,,0.00,WeatherDisplay:10.37,2013-07-04 14:21:00,
2013-07-04 10:26:00,88.3,73.6,30.17,SE,127,0.4,1.2,62,0.00,CLR,,0.00,WeatherDisplay:10.37,2013-07-04 14:26:00,
2013-07-04 10:31:00,88.5,72.3,30.17,WSW,255,0.6,2.3,59,0.00,CLR,,0.00,WeatherDisplay:10.37,2013-07-04 14:31:00,
2013-07-04 10:36:00,88.7,73.0,30.17,SSW,207,1.7,3.5,60,0.00,CLR,,0.00,WeatherDisplay:10.37,2013-07-04 14:36:00,
2013-07-04 10:41:00,89.2,75.0,30.17,SSW,207,0.2,1.2,63,0.00,CLR,,0.00,WeatherDisplay:10.37,2013-07-04 14:41:00,
2013-07-04 10:46:00,89.6,73.9,30.16,SSW,201,0.9,2.3,60,0.00,CLR,,0.00,WeatherDisplay:10.37,2013-07-04 14:46:00,
2013-07-04 10:47:00,89.6,73.9,30.16,SSW,201,0.9,2.3,60,0.00,CLR,,0.00,WeatherDisplay:10.37,2013-07-04 14:47:00,
2013-07-04 10:52:00,89.6,72.9,30.16,NNW,334,1.5,3.5,58,0.00,CLR,,0.00,WeatherDisplay:10.37,2013-07-04 14:52:00,
2013-07-04 10:57:00,89.6,74.4,30.17,NNW,334,0.1,1.2,61,0.00,CLR,,0.00,WeatherDisplay:10.37,2013-07-04 14:57:00,
2013-07-04 11:02:00,89.8,72.0,30.17,WSW,242,0.4,2.3,56,0.00,CLR,,0.00,WeatherDisplay:10.37,2013-07-04 15:02:00,
2013-07-04 11:07:00,90.2,73.4,30.17,WSW,237,1.2,3.5,58,0.00,CLR,,0.00,WeatherDisplay:10.37,2013-07-04 15:07:00,
2013-07-04 11:12:00,90.4,73.1,30.17,WSW,237,0.6,2.3,57,0.00,CLR,,0.00,WeatherDisplay:10.37,2013-07-04 15:12:00,
2013-07-04 11:17:00,90.4,73.1,30.17,West,265,2.3,5.8,57,0.00,CLR,,0.00,WeatherDisplay:10.37,2013-07-04 15:17:00,
2013-07-04 11:22:00,90.2,73.4,30.17,West,261,0.8,3.5,58,0.00,CLR,,0.00,WeatherDisplay:10.37,2013-07-04 15:22:00,
2013-07-04 11:27:00,90.2,75.4,30.17,WNW,297,2.5,4.6,62,0.00,CLR,,0.00,WeatherDisplay:10.37,2013-07-04 15:27:00,
2013-07-04 11:32:00,90.2,72.9,30.16,WSW,242,3.3,6.0,57,0.00,CLR,,0.00,WeatherDisplay:10.37,2013-07-04 15:32:00,
2013-07-04 11:37:00,90.4,73.6,30.16,South,185,0.4,2.3,58,0.00,CLR,,0.00,WeatherDisplay:10.37,2013-07-04 15:37:00,
2013-07-04 11:42:00,90.7,74.9,30.16,West,275,1.5,3.5,60,0.00,CLR,,0.00,WeatherDisplay:10.37,2013-07-04 15:42:00,
2013-07-04 11:47:00,91.1,74.3,30.16,West,259,0.2,1.2,58,0.00,CLR,,0.00,WeatherDisplay:10.37,2013-07-04 15:47:00,
2013-07-04 11:52:00,91.5,73.1,30.16,SSW,203,1.5,3.5,55,0.00,CLR,,0.00,WeatherDisplay:10.37,2013-07-04 15:52:00,
2013-07-04 11:57:00,91.3,72.9,30.16,WSW,237,4.4,6.9,55,0.00,CLR,,0.00,WeatherDisplay:10.37,2013-07-04 15:57:00,
2013-07-04 12:02:00,90.9,73.6,30.15,South,179,3.2,6.9,57,0.00,FEW,,0.00,WeatherDisplay:10.37,2013-07-04 16:02:00,
2013-07-04 12:07:00,90.7,73.4,30.15,NNW,330,3.7,5.8,57,0.00,FEW,,0.00,WeatherDisplay:10.37,2013-07-04 16:07:00,
2013-07-04 12:12:00,90.2,71.8,30.15,SW,228,0.5,2.3,55,0.00,FEW,,0.00,WeatherDisplay:10.37,2013-07-04 16:12:00,
2013-07-04 12:17:00,90.2,73.9,30.15,SSW,194,1.8,4.6,59,0.00,FEW,,0.00,WeatherDisplay:10.37,2013-07-04 16:17:00,
2013-07-04 12:22:00,90.4,73.1,30.15,SSW,204,1.6,3.5,57,0.00,FEW,,0.00,WeatherDisplay:10.37,2013-07-04 16:22:00,
2013-07-04 12:27:00,90.4,71.5,30.15,WNW,296,1.2,2.3,54,0.00,FEW,,0.00,WeatherDisplay:10.37,2013-07-04 16:27:00,
2013-07-04 12:32:00,90.7,71.2,30.14,South,189,1.7,3.5,53,0.00,FEW,,0.00,WeatherDisplay:10.37,2013-07-04 16:32:00,
2013-07-04 12:37:00,90.9,72.5,30.14,West,261,1.3,3.5,55,0.00,FEW,,0.00,WeatherDisplay:10.37,2013-07-04 16:37:00,
2013-07-04 12:42:00,90.7,70.7,30.14,SSW,199,2.5,5.8,52,0.00,FEW,,0.00,WeatherDisplay:10.37,2013-07-04 16:42:00,
2013-07-04 12:47:00,90.4,71.5,30.14,SSW,210,3.3,8.1,54,0.00,FEW,,0.00,WeatherDisplay:10.37,2013-07-04 16:47:00,
2013-07-04 12:52:00,90.2,70.2,30.14,South,186,3.9,8.1,52,0.00,FEW,,0.00,WeatherDisplay:10.37,2013-07-04 16:52:00,
2013-07-04 12:57:00,90.2,70.8,30.14,SW,214,0.4,3.5,53,0.00,FEW,,0.00,WeatherDisplay:10.37,2013-07-04 16:57:00,
2013-07-04 13:02:00,90.4,71.5,30.14,WNW,303,3.0,5.8,54,0.00,SCT,,0.00,WeatherDisplay:10.37,2013-07-04 17:02:00,
2013-07-04 13:07:00,90.9,72.0,30.14,South,182,2.5,4.6,54,0.00,SCT,,0.00,WeatherDisplay:10.37,2013-07-04 17:07:00,
2013-07-04 13:12:00,91.3,72.9,30.13,WNW,286,2.5,5.8,55,0.00,SCT,,0.00,WeatherDisplay:10.37,2013-07-04 17:12:00,
2013-07-04 13:17:00,91.8,71.7,30.13,West,273,2.3,4.6,52,0.00,SCT,,0.00,WeatherDisplay:10.37,2013-07-04 17:17:00,
2013-07-04 13:22:00,92.0,71.3,30.13,South,190,2.3,7.0,51,0.00,SCT,,0.00,WeatherDisplay:10.37,2013-07-04 17:22:00,
2013-07-04 13:27:00,92.0,71.3,30.13,SW,216,2.3,4.6,51,0.00,SCT,,0.00,WeatherDisplay:10.37,2013-07-04 17:27:00,
2013-07-04 13:32:00,91.8,70.5,30.13,WSW,255,1.4,3.5,50,0.00,SCT,,0.00,WeatherDisplay:10.37,2013-07-04 17:32:00,
2013-07-04 13:37:00,91.8,72.2,30.12,SW,216,2.3,8.0,53,0.00,SCT,,0.00,WeatherDisplay:10.37,2013-07-04 17:37:00,
2013-07-04 13:42:00,92.0,72.4,30.12,South,185,1.8,4.6,53,0.00,SCT,,0.00,WeatherDisplay:10.37,2013-07-04 17:42:00,
2013-07-04 13:47:00,92.0,72.4,30.12,SSW,203,1.9,3.5,53,0.00,SCT,,0.00,WeatherDisplay:10.37,2013-07-04 17:47:00,
2013-07-04 13:52:00,92.2,68.4,30.12,SE,137,0.7,3.5,46,0.00,SCT,,0.00,WeatherDisplay:10.37,2013-07-04 17:52:00,
2013-07-04 13:57:00,92.0,69.5,30.11,NNW,334,0.1,1.2,48,0.00,SCT,,0.00,WeatherDisplay:10.37,2013-07-04 17:57:00,
2013-07-04 14:02:00,92.2,69.1,30.11,ESE,114,3.6,6.9,47,0.00,FEW,,0.00,WeatherDisplay:10.37,2013-07-04 18:02:00,
2013-07-04 14:07:00,92.4,69.9,30.11,South,169,2.3,4.0,48,0.00,FEW,,0.00,WeatherDisplay:10.37,2013-07-04 18:07:00,
2013-07-04 14:12:00,92.6,68.2,30.11,SSE,161,0.8,3.5,45,0.00,FEW,,0.00,WeatherDisplay:10.37,2013-07-04 18:12:00,
2013-07-04 14:17:00,92.9,71.5,30.11,SSW,196,3.8,9.2,50,0.00,FEW,,0.00,WeatherDisplay:10.37,2013-07-04 18:17:00,
2013-07-04 14:22:00,93.1,71.1,30.11,South,189,1.4,3.5,49,0.00,FEW,,0.00,WeatherDisplay:10.37,2013-07-04 18:22:00,
2013-07-04 14:27:00,93.3,70.7,30.10,SSE,162,1.8,4.6,48,0.00,FEW,,0.00,WeatherDisplay:10.37,2013-07-04 18:27:00,
2013-07-04 14:32:00,93.5,72.1,30.10,WSW,238,1.5,3.5,50,0.00,FEW,,0.00,WeatherDisplay:10.37,2013-07-04 18:32:00,
2013-07-04 14:37:00,93.7,70.4,30.10,SSE,162,3.4,4.6,47,0.00,FEW,,0.00,WeatherDisplay:10.37,2013-07-04 18:37:00,
2013-07-04 14:42:00,94.0,71.3,30.10,West,281,4.1,8.1,48,0.00,FEW,,0.00,WeatherDisplay:10.37,2013-07-04 18:42:00,
2013-07-04 14:47:00,94.0,70.7,30.10,WNW,302,5.9,8.1,47,0.00,FEW,,0.00,WeatherDisplay:10.37,2013-07-04 18:47:00,
2013-07-04 14:52:00,93.3,71.3,30.10,SSW,203,0.4,4.6,49,0.00,FEW,,0.00,WeatherDisplay:10.37,2013-07-04 18:52:00,
2013-07-04 14:57:00,93.5,70.2,30.10,SW,224,2.3,3.5,47,0.00,FEW,,0.00,WeatherDisplay:10.37,2013-07-04 18:57:00,
2013-07-04 15:02:00,93.5,70.2,30.10,SSW,209,1.1,3.5,47,0.00,SCT,,0.00,WeatherDisplay:10.37,2013-07-04 19:02:00,
2013-07-04 15:07:00,93.1,68.6,30.10,West,281,5.0,8.1,45,0.00,SCT,,0.00,WeatherDisplay:10.37,2013-07-04 19:07:00,
2013-07-04 15:12:00,93.1,69.9,30.10,North,358,2.3,4.6,47,0.00,SCT,,0.00,WeatherDisplay:10.37,2013-07-04 19:12:00,
2013-07-04 15:17:00,92.9,68.4,30.09,SE,144,0.7,5.0,45,0.00,SCT,,0.00,WeatherDisplay:10.37,2013-07-04 19:17:00,
2013-07-04 15:22:00,92.9,69.7,30.09,SSW,196,3.8,6.9,47,0.00,SCT,,0.00,WeatherDisplay:10.37,2013-07-04 19:22:00,
2013-07-04 15:27:00,93.3,74.2,30.09,West,266,0.3,3.5,54,0.00,SCT,,0.00,WeatherDisplay:10.37,2013-07-04 19:27:00,
2013-07-04 15:32:00,93.3,70.1,30.09,WNW,297,3.2,4.6,47,0.00,SCT,,0.00,WeatherDisplay:10.37,2013-07-04 19:32:00,
2013-07-04 15:37:00,93.3,70.1,30.09,WNW,297,4.9,7.0,47,0.00,SCT,,0.00,WeatherDisplay:10.37,2013-07-04 19:37:00,
2013-07-04 15:42:00,92.6,70.0,30.09,SSE,158,2.0,4.6,48,0.00,SCT,,0.00,WeatherDisplay:10.37,2013-07-04 19:42:00,
2013-07-04 15:47:00,92.6,69.4,30.08,South,172,4.2,11.5,47,0.00,SCT,,0.00,WeatherDisplay:10.37,2013-07-04 19:47:00,
2013-07-04 15:52:00,92.9,67.8,30.09,SW,225,5.6,8.1,44,0.00,SCT,,0.00,WeatherDisplay:10.37,2013-07-04 19:52:00,
2013-07-04 15:57:00,93.1,69.9,30.09,SE,141,2.8,9.2,47,0.00,SCT,,0.00,WeatherDisplay:10.37,2013-07-04 19:57:00,
2013-07-04 16:02:00,92.9,67.8,30.08,SE,125,1.5,6.0,44,0.00,SCT,,0.00,WeatherDisplay:10.37,2013-07-04 20:02:00,
2013-07-04 16:07:00,92.9,68.4,30.08,South,180,1.3,6.9,45,0.00,SCT,,0.00,WeatherDisplay:10.37,2013-07-04 20:07:00,
2013-07-04 16:12:00,92.6,68.8,30.08,South,169,0.2,1.2,46,0.00,SCT,,0.00,WeatherDisplay:10.37,2013-07-04 20:12:00,
2013-07-04 16:17:00,92.6,69.4,30.08,SSW,200,1.7,6.9,47,0.00,SCT,,0.00,WeatherDisplay:10.37,2013-07-04 20:17:00,
2013-07-04 16:22:00,93.1,70.5,30.08,SW,224,5.5,8.1,48,0.00,SCT,,0.00,WeatherDisplay:10.37,2013-07-04 20:22:00,
2013-07-04 16:27:00,92.9,69.1,30.08,SSW,199,2.5,5.0,46,0.00,SCT,,0.00,WeatherDisplay:10.37,2013-07-04 20:27:00,
2013-07-04 16:32:00,92.9,70.9,30.08,South,179,1.5,4.6,49,0.00,SCT,,0.00,WeatherDisplay:10.37,2013-07-04 20:32:00,
2013-07-04 16:37:00,93.1,69.9,30.08,SW,214,3.0,7.0,47,0.00,SCT,,0.00,WeatherDisplay:10.37,2013-07-04 20:37:00,
2013-07-04 16:42:00,93.1,69.9,30.08,SSW,201,4.7,10.4,47,0.00,SCT,,0.00,WeatherDisplay:10.37,2013-07-04 20:42:00,
2013-07-04 16:47:00,93.1,69.3,30.08,West,273,6.3,10.4,46,0.00,SCT,,0.00,WeatherDisplay:10.37,2013-07-04 20:47:00,
2013-07-04 16:52:00,92.6,69.4,30.08,NNW,331,1.9,3.5,47,0.00,SCT,,0.00,WeatherDisplay:10.37,2013-07-04 20:52:00,
2013-07-04 16:57:00,92.2,70.9,30.08,SSW,210,0.9,3.5,50,0.00,SCT,,0.00,WeatherDisplay:10.37,2013-07-04 20:57:00,
2013-07-04 17:02:00,91.8,70.5,30.07,SSW,213,0.6,3.5,50,0.00,FEW,,0.00,WeatherDisplay:10.37,2013-07-04 21:02:00,
2013-07-04 17:07:00,91.5,70.8,30.08,SSW,204,6.7,11.5,51,0.00,FEW,,0.00,WeatherDisplay:10.37,2013-07-04 21:07:00,
2013-07-04 17:12:00,91.1,71.0,30.08,SSE,166,6.2,9.2,52,0.00,FEW,,0.00,WeatherDisplay:10.37,2013-07-04 21:12:00,
2013-07-04 17:17:00,90.7,70.7,30.07,South,169,0.8,2.3,52,0.00,FEW,,0.00,WeatherDisplay:10.37,2013-07-04 21:17:00,
2013-07-04 17:22:00,90.2,70.8,30.07,SSE,155,2.0,3.5,53,0.00,FEW,,0.00,WeatherDisplay:10.37,2013-07-04 21:22:00,
2013-07-04 17:27:00,90.0,71.7,30.07,SSW,193,4.3,6.9,55,0.00,FEW,,0.00,WeatherDisplay:10.37,2013-07-04 21:27:00,
2013-07-04 17:32:00,89.8,70.9,30.07,SSW,207,5.5,11.5,54,0.00,FEW,,0.00,WeatherDisplay:10.37,2013-07-04 21:32:00,
2013-07-04 17:37:00,89.6,71.3,30.07,South,170,3.9,6.9,55,0.00,FEW,,0.00,WeatherDisplay:10.37,2013-07-04 21:37:00,
2013-07-04 17:42:00,89.4,70.6,30.07,WNW,299,4.1,6.9,54,0.00,FEW,,0.00,WeatherDisplay:10.37,2013-07-04 21:42:00,
2013-07-04 17:47:00,89.2,71.5,30.07,South,182,3.3,5.8,56,0.00,FEW,,0.00,WeatherDisplay:10.37,2013-07-04 21:47:00,
2013-07-04 17:52:00,89.0,71.3,30.07,SW,216,1.8,7.0,56,0.00,FEW,,0.00,WeatherDisplay:10.37,2013-07-04 21:52:00,
2013-07-04 17:57:00,89.0,71.3,30.07,SW,220,2.4,4.6,56,0.00,FEW,,0.00,WeatherDisplay:10.37,2013-07-04 21:57:00,
2013-07-04 18:02:00,88.7,71.0,30.07,SSE,159,1.2,6.9,56,0.00,BKN,,0.00,WeatherDisplay:10.37,2013-07-04 22:02:00,
2013-07-04 18:07:00,88.5,70.8,30.07,South,173,1.3,6.9,56,0.00,BKN,,0.00,WeatherDisplay:10.37,2013-07-04 22:07:00,
2013-07-04 18:12:00,88.3,71.1,30.07,SE,129,1.3,3.5,57,0.00,BKN,,0.00,WeatherDisplay:10.37,2013-07-04 22:12:00,
2013-07-04 18:17:00,88.1,71.5,30.07,South,169,1.4,3.5,58,0.00,BKN,,0.00,WeatherDisplay:10.37,2013-07-04 22:17:00,
2013-07-04 18:22:00,88.1,72.0,30.07,SSW,213,1.3,3.5,59,0.00,BKN,,0.00,WeatherDisplay:10.37,2013-07-04 22:22:00,
2013-07-04 18:27:00,87.9,70.8,30.07,SSW,201,4.8,8.1,57,0.00,BKN,,0.00,WeatherDisplay:10.37,2013-07-04 22:27:00,
2013-07-04 18:32:00,87.9,71.8,30.06,SSW,194,2.5,3.5,59,0.00,BKN,,0.00,WeatherDisplay:10.37,2013-07-04 22:32:00,
2013-07-04 18:37:00,87.7,71.1,30.06,SSE,166,1.2,4.6,58,0.00,BKN,,0.00,WeatherDisplay:10.37,2013-07-04 22:37:00,
2013-07-04 18:42:00,87.7,71.6,30.06,SSW,209,3.5,3.5,59,0.00,BKN,,0.00,WeatherDisplay:10.37,2013-07-04 22:42:00,
2013-07-04 18:47:00,87.5,71.4,30.07,South,173,1.9,4.6,59,0.00,BKN,,0.00,WeatherDisplay:10.37,2013-07-04 22:47:00,
2013-07-04 18:52:00,87.3,71.2,30.07,SSW,193,2.7,8.1,59,0.00,BKN,,0.00,WeatherDisplay:10.37,2013-07-04 22:52:00,
2013-07-04 18:57:00,87.3,71.7,30.07,SSW,204,1.0,2.3,60,0.00,BKN,,0.00,WeatherDisplay:10.37,2013-07-04 22:57:00,
2013-07-04 19:02:00,87.3,71.7,30.07,WSW,254,0.3,4.0,60,0.00,CLR,,0.00,WeatherDisplay:10.37,2013-07-04 23:02:00,
2013-07-04 19:07:00,87.3,71.7,30.07,SW,231,0.0,1.2,60,0.00,CLR,,0.00,WeatherDisplay:10.37,2013-07-04 23:07:00,
2013-07-04 19:12:00,87.1,71.5,30.07,South,180,0.6,2.3,60,0.00,CLR,,0.00,WeatherDisplay:10.37,2013-07-04 23:12:00,
2013-07-04 19:17:00,87.1,72.0,30.07,SSE,166,0.4,3.5,61,0.00,CLR,,0.00,WeatherDisplay:10.37,2013-07-04 23:17:00,
2013-07-04 19:22:00,86.9,71.8,30.08,SSW,203,1.6,3.5,61,0.00,CLR,,0.00,WeatherDisplay:10.37,2013-07-04 23:22:00,
2013-07-04 19:27:00,86.9,71.8,30.08,SSW,206,0.9,3.5,61,0.00,CLR,,0.00,WeatherDisplay:10.37,2013-07-04 23:27:00,
2013-07-04 19:32:00,86.7,71.6,30.08,SSW,206,0.0,1.2,61,0.00,CLR,,0.00,WeatherDisplay:10.37,2013-07-04 23:32:00,
2013-07-04 19:37:00,86.4,71.8,30.08,SSW,207,0.1,1.2,62,0.00,CLR,,0.00,WeatherDisplay:10.37,2013-07-04 23:37:00,
2013-07-04 19:42:00,86.4,72.3,30.08,SSW,207,0.0,0.0,63,0.00,CLR,,0.00,WeatherDisplay:10.37,2013-07-04 23:42:00,
2013-07-04 19:47:00,86.2,72.6,30.08,SSW,204,0.1,0.0,64,0.00,CLR,,0.00,WeatherDisplay:10.37,2013-07-04 23:47:00,
2013-07-04 19:52:00,86.0,72.9,30.08,SSW,203,0.4,2.3,65,0.00,CLR,,0.00,WeatherDisplay:10.37,2013-07-04 23:52:00,
2013-07-04 19:57:00,85.6,72.5,30.08,SSW,200,0.2,3.5,65,0.00,CLR,,0.00,WeatherDisplay:10.37,2013-07-04 23:57:00,
2013-07-04 20:02:00,85.2,72.6,30.08,SW,227,0.6,2.3,66,0.00,CLR,,0.00,WeatherDisplay:10.37,2013-07-05 00:02:00,
2013-07-04 20:07:00,84.6,71.5,30.08,SSE,168,2.5,3.5,65,0.00,CLR,,0.00,WeatherDisplay:10.37,2013-07-05 00:07:00,
2013-07-04 20:12:00,84.2,71.2,30.08,SSW,203,0.8,2.3,65,0.00,CLR,,0.00,WeatherDisplay:10.37,2013-07-05 00:12:00,
2013-07-04 20:17:00,83.8,71.2,30.08,SSE,155,1.7,2.3,66,0.00,CLR,,0.00,WeatherDisplay:10.37,2013-07-05 00:17:00,
2013-07-04 20:22:00,83.5,70.9,30.08,SSE,155,0.4,2.3,66,0.00,CLR,,0.00,WeatherDisplay:10.37,2013-07-05 00:22:00,
2013-07-04 20:27:00,83.3,71.6,30.08,SSE,155,0.0,0.0,68,0.00,CLR,,0.00,WeatherDisplay:10.37,2013-07-05 00:27:00,
2013-07-04 20:32:00,82.9,71.3,30.08,South,182,0.0,0.0,68,0.00,CLR,,0.00,WeatherDisplay:10.37,2013-07-05 00:32:00,
2013-07-04 20:37:00,82.7,71.5,30.08,South,180,0.0,0.0,69,0.00,CLR,,0.00,WeatherDisplay:10.37,2013-07-05 00:37:00,
2013-07-04 20:42:00,82.3,71.1,30.08,South,175,0.2,0.0,69,0.00,CLR,,0.00,WeatherDisplay:10.37,2013-07-05 00:42:00,
2013-07-04 20:47:00,81.9,71.2,30.08,South,173,0.3,0.0,70,0.00,CLR,,0.00,WeatherDisplay:10.37,2013-07-05 00:47:00,
2013-07-04 20:52:00,81.5,70.8,30.08,South,176,0.0,0.0,70,0.00,CLR,,0.00,WeatherDisplay:10.37,2013-07-05 00:52:00,
2013-07-04 20:57:00,81.3,71.0,30.09,South,175,0.0,1.2,71,0.00,CLR,,0.00,WeatherDisplay:10.37,2013-07-05 00:57:00,
2013-07-04 21:02:00,80.9,71.0,30.09,South,177,0.3,2.3,72,0.00,CLR,,0.00,WeatherDisplay:10.37,2013-07-05 01:02:00,
2013-07-04 21:07:00,80.6,70.7,30.09,South,177,0.0,2.3,72,0.00,CLR,,0.00,WeatherDisplay:10.37,2013-07-05 01:07:00,
2013-07-04 21:12:00,80.4,70.9,30.09,South,186,0.0,1.2,73,0.00,CLR,,0.00,WeatherDisplay:10.37,2013-07-05 01:12:00,
2013-07-04 21:17:00,80.0,70.6,30.09,South,187,0.5,1.2,73,0.00,CLR,,0.00,WeatherDisplay:10.37,2013-07-05 01:17:00,
2013-07-04 21:22:00,79.8,70.4,30.09,South,186,0.4,1.2,73,0.00,CLR,,0.00,WeatherDisplay:10.37,2013-07-05 01:22:00,
2013-07-04 21:27:00,79.6,70.2,30.09,SSE,168,1.3,2.3,73,0.00,CLR,,0.00,WeatherDisplay:10.37,2013-07-05 01:27:00,
2013-07-04 21:32:00,79.5,70.1,30.10,SW,218,1.6,5.0,73,0.00,CLR,,0.00,WeatherDisplay:10.37,2013-07-05 01:32:00,
2013-07-04 21:37:00,79.3,70.7,30.10,South,190,1.1,1.2,75,0.00,CLR,,0.00,WeatherDisplay:10.37,2013-07-05 01:37:00,
2013-07-04 21:42:00,79.3,70.7,30.10,SSW,192,1.9,3.5,75,0.00,CLR,,0.00,WeatherDisplay:10.37,2013-07-05 01:42:00,
2013-07-04 21:47:00,79.1,70.5,30.10,SW,216,0.1,1.2,75,0.00,CLR,,0.00,WeatherDisplay:10.37,2013-07-05 01:47:00,
2013-07-04 21:52:00,78.9,70.7,30.10,SSE,161,1.3,3.5,76,0.00,CLR,,0.00,WeatherDisplay:10.37,2013-07-05 01:52:00,
2013-07-04 21:57:00,78.7,70.1,30.10,South,186,0.3,3.5,75,0.00,CLR,,0.00,WeatherDisplay:10.37,2013-07-05 01:57:00,
2013-07-04 22:02:00,78.5,69.9,30.10,South,186,0.9,2.3,75,0.00,CLR,,0.00,WeatherDisplay:10.37,2013-07-05 02:02:00,
2013-07-04 22:08:00,78.5,69.9,30.10,South,172,1.4,3.5,75,0.00,CLR,,0.00,WeatherDisplay:10.37,2013-07-05 02:08:00,
2013-07-04 22:13:00,78.5,69.5,30.10,South,189,0.6,2.3,74,0.00,CLR,,0.00,WeatherDisplay:10.37,2013-07-05 02:13:00,
2013-07-04 22:18:00,78.7,69.7,30.10,SSE,148,0.3,1.2,74,0.00,CLR,,0.00,WeatherDisplay:10.37,2013-07-05 02:18:00,
2013-07-04 22:23:00,78.7,69.7,30.10,SSW,201,0.9,5.0,74,0.00,CLR,,0.00,WeatherDisplay:10.37,2013-07-05 02:23:00,
2013-07-04 22:28:00,78.7,69.7,30.09,SSE,153,1.0,4.6,74,0.00,CLR,,0.00,WeatherDisplay:10.37,2013-07-05 02:28:00,
2013-07-04 22:33:00,78.7,69.7,30.09,SSW,193,1.0,3.5,74,0.00,CLR,,0.00,WeatherDisplay:10.37,2013-07-05 02:33:00,
2013-07-04 22:38:00,78.5,69.9,30.09,SW,231,2.8,5.8,75,0.00,CLR,,0.00,WeatherDisplay:10.37,2013-07-05 02:38:00,
2013-07-04 22:43:00,78.5,69.9,30.09,SSW,210,0.6,2.3,75,0.00,CLR,,0.00,WeatherDisplay:10.37,2013-07-05 02:43:00,
2013-07-04 22:48:00,78.5,69.9,30.10,WSW,251,0.7,2.3,75,0.00,CLR,,0.00,WeatherDisplay:10.37,2013-07-05 02:48:00,
2013-07-04 22:53:00,78.5,69.5,30.10,SW,230,3.1,6.9,74,0.00,CLR,,0.00,WeatherDisplay:10.37,2013-07-05 02:53:00,
2013-07-04 22:58:00,78.5,69.5,30.10,WSW,257,0.7,2.3,74,0.00,CLR,,0.00,WeatherDisplay:10.37,2013-07-05 02:58:00,
2013-07-04 23:03:00,78.5,69.1,30.09,SSW,193,4.7,8.1,73,0.00,CLR,,0.00,WeatherDisplay:10.37,2013-07-05 03:03:00,
2013-07-04 23:08:00,78.7,69.3,30.09,NNW,334,1.0,3.5,73,0.00,CLR,,0.00,WeatherDisplay:10.37,2013-07-05 03:08:00,
2013-07-04 23:13:00,78.7,68.9,30.09,SW,234,1.3,3.5,72,0.00,CLR,,0.00,WeatherDisplay:10.37,2013-07-05 03:13:00,
2013-07-04 23:18:00,78.7,69.3,30.09,WSW,255,0.8,3.0,73,0.00,CLR,,0.00,WeatherDisplay:10.37,2013-07-05 03:18:00,
2013-07-04 23:23:00,78.7,68.9,30.09,NW,312,0.4,1.2,72,0.00,CLR,,0.00,WeatherDisplay:10.37,2013-07-05 03:23:00,
2013-07-04 23:28:00,78.9,69.1,30.10,North,358,0.0,0.0,72,0.00,CLR,,0.00,WeatherDisplay:10.37,2013-07-05 03:28:00,
2013-07-04 23:33:00,78.9,69.1,30.10,SW,221,2.7,4.6,72,0.00,CLR,,0.00,WeatherDisplay:10.37,2013-07-05 03:33:00,
2013-07-04 23:38:00,78.9,69.1,30.10,SSW,200,3.4,5.8,72,0.00,CLR,,0.00,WeatherDisplay:10.37,2013-07-05 03:38:00,
2013-07-04 23:43:00,78.9,69.1,30.10,South,182,3.2,4.6,72,0.00,CLR,,0.00,WeatherDisplay:10.37,2013-07-05 03:43:00,
2013-07-04 23:48:00,78.9,69.1,30.11,WSW,245,3.1,5.8,72,0.00,CLR,,0.00,WeatherDisplay:10.37,2013-07-05 03:48:00,
2013-07-04 23:53:00,78.9,69.1,30.11,South,185,2.1,4.6,72,0.00,CLR,,0.00,WeatherDisplay:10.37,2013-07-05 03:53:00,
2013-07-04 23:58:00,78.9,69.1,30.11,WNW,282,2.1,5.0,72,0.00,CLR,,0.00,WeatherDisplay:10.37,2013-07-05 03:58:00,